Time;durP1;ratioP1;P1;durP2;ratioP2;P2;SDS_P1;SDS_P2;PMS_P1;PMS_P2;Temp;Humidity;BMP_temperature;BMP_pressure;BME280_temperature;BME280_humidity;BME280_pressure;Samples;Min_cycle;Max_cycle;Signal;HPM_P1;HPM_P2
2021/06/09 00:01:24;;;;;;;31.80;22.07;;;15.90;99.90;;;;;;5075915;28;20196;-65
2021/06/09 00:03:52;;;;;;;34.80;21.90;;;15.90;99.90;;;;;;5075083;28;20204;-65
2021/06/09 00:06:22;;;;;;;29.97;21.87;;;15.80;99.90;;;;;;5081814;28;20231;-65
2021/06/09 00:08:49;;;;;;;31.67;23.90;;;15.80;99.90;;;;;;5080629;28;20483;-66
2021/06/09 00:11:18;;;;;;;39.07;25.60;;;15.80;99.90;;;;;;5080385;28;20176;-65
2021/06/09 00:13:45;;;;;;;41.03;27.70;;;15.80;99.90;;;;;;5058722;28;20246;-65
2021/06/09 00:16:17;;;;;;;43.20;28.77;;;15.70;99.90;;;;;;5080267;28;20258;-65
2021/06/09 00:18:45;;;;;;;44.67;29.20;;;15.70;99.90;;;;;;5072870;28;20472;-65
2021/06/09 00:21:13;;;;;;;48.47;31.80;;;15.70;99.90;;;;;;5077742;28;20337;-65
2021/06/09 00:23:42;;;;;;;47.57;31.90;;;15.70;99.90;;;;;;5074079;28;20197;-65
2021/06/09 00:26:10;;;;;;;46.37;31.40;;;15.70;99.90;;;;;;5079279;28;20673;-65
2021/06/09 00:28:38;;;;;;;54.20;35.37;;;15.70;99.90;;;;;;5081429;28;20200;-65
2021/06/09 00:31:08;;;;;;;55.93;36.43;;;15.70;99.90;;;;;;5081432;28;20176;-65
2021/06/09 00:33:36;;;;;;;54.93;36.07;;;15.70;99.90;;;;;;5068756;28;20425;-65
2021/06/09 00:36:05;;;;;;;54.77;36.97;;;15.70;99.90;;;;;;5082430;28;20371;-65
2021/06/09 00:38:33;;;;;;;56.57;36.53;;;15.60;99.90;;;;;;5079298;28;20225;-65
2021/06/09 00:41:03;;;;;;;56.37;37.60;;;15.60;99.90;;;;;;5080421;28;20379;-65
2021/06/09 00:43:34;;;;;;;55.57;36.57;;;15.50;99.90;;;;;;5083593;28;20486;-65
2021/06/09 00:46:04;;;;;;;62.33;37.37;;;15.50;99.90;;;;;;5081378;28;20229;-65
2021/06/09 00:48:34;;;;;;;58.80;36.37;;;15.40;99.90;;;;;;5080723;28;20184;-65
2021/06/09 00:51:08;;;;;;;53.77;37.07;;;15.40;99.90;;;;;;5080440;28;20367;-65
2021/06/09 00:53:38;;;;;;;56.90;36.93;;;15.40;99.90;;;;;;5071157;28;20187;-64
2021/06/09 00:56:10;;;;;;;55.50;36.57;;;15.30;99.90;;;;;;5077249;28;20227;-66
2021/06/09 00:58:39;;;;;;;54.17;36.50;;;15.30;99.90;;;;;;5077251;28;20278;-65
2021/06/09 01:01:35;;;;;;;52.63;35.63;;;15.30;99.90;;;;;;5078364;28;20175;-65
2021/06/09 01:04:05;;;;;;;55.63;35.57;;;15.30;99.90;;;;;;5080378;28;20247;-65
2021/06/09 01:06:35;;;;;;;53.23;35.50;;;15.20;99.90;;;;;;5081387;28;20188;-65
2021/06/09 01:09:07;;;;;;;57.00;37.33;;;15.20;99.90;;;;;;5081075;28;20357;-65
2021/06/09 01:11:36;;;;;;;54.40;35.97;;;15.20;99.90;;;;;;5079747;28;20180;-65
2021/06/09 01:14:05;;;;;;;57.03;37.63;;;15.10;99.90;;;;;;5075509;28;20200;-65
2021/06/09 01:16:32;;;;;;;59.63;39.17;;;15.10;99.90;;;;;;5080358;28;20352;-65
2021/06/09 01:19:01;;;;;;;62.83;40.90;;;15.10;99.90;;;;;;5075570;28;20513;-65
2021/06/09 01:21:31;;;;;;;58.57;38.97;;;15.10;99.90;;;;;;5079228;28;20184;-65
2021/06/09 01:24:00;;;;;;;67.83;38.97;;;15.10;99.90;;;;;;5072643;28;20196;-64
2021/06/09 01:26:30;;;;;;;59.73;38.50;;;15.10;99.90;;;;;;5076019;28;20184;-65
2021/06/09 01:28:59;;;;;;;61.30;40.50;;;15.00;99.90;;;;;;5076834;28;20215;-65
2021/06/09 01:31:28;;;;;;;67.17;43.37;;;15.00;99.90;;;;;;5075553;28;20196;-65
2021/06/09 01:34:03;;;;;;;72.67;43.40;;;14.90;99.90;;;;;;5073239;28;20185;-65
2021/06/09 01:36:34;;;;;;;78.03;47.60;;;14.90;99.90;;;;;;5087652;28;20190;-64
2021/06/09 01:39:08;;;;;;;71.27;46.37;;;14.90;99.90;;;;;;5082810;28;20464;-65
2021/06/09 01:41:40;;;;;;;72.83;47.07;;;14.90;99.90;;;;;;5082058;28;20193;-65
2021/06/09 01:44:09;;;;;;;75.60;46.90;;;14.90;99.90;;;;;;5083646;28;20271;-65
2021/06/09 01:46:37;;;;;;;71.17;45.00;;;14.90;99.90;;;;;;5084777;28;20210;-65
2021/06/09 01:49:06;;;;;;;73.70;46.13;;;14.90;99.90;;;;;;5080518;28;20203;-64
2021/06/09 01:51:37;;;;;;;73.80;46.40;;;14.90;99.90;;;;;;5081778;28;20383;-65
2021/06/09 01:54:06;;;;;;;71.10;45.67;;;14.80;99.90;;;;;;5081227;28;20188;-65
2021/06/09 01:56:35;;;;;;;71.80;44.80;;;14.80;99.90;;;;;;5077708;28;20199;-65
2021/06/09 01:59:10;;;;;;;72.73;45.70;;;14.80;99.90;;;;;;5084779;28;20214;-65
2021/06/09 02:01:38;;;;;;;76.10;47.03;;;14.80;99.90;;;;;;5083993;28;20192;-65
2021/06/09 02:04:09;;;;;;;78.73;47.87;;;14.80;99.90;;;;;;5063603;28;20496;-65
2021/06/09 02:06:40;;;;;;;81.23;49.30;;;14.70;99.90;;;;;;5078325;28;20222;-65
2021/06/09 02:09:09;;;;;;;79.30;48.07;;;14.70;99.90;;;;;;5082727;28;20184;-65
2021/06/09 02:11:38;;;;;;;82.90;49.67;;;14.70;99.90;;;;;;5077236;28;20192;-65
2021/06/09 02:14:07;;;;;;;80.27;50.53;;;14.70;99.90;;;;;;5082796;28;20440;-65
2021/06/09 02:16:35;;;;;;;84.63;48.83;;;14.60;99.90;;;;;;5084920;28;20263;-65
2021/06/09 02:19:05;;;;;;;76.57;47.97;;;14.60;99.90;;;;;;5082816;28;20382;-65
2021/06/09 02:21:34;;;;;;;88.67;51.27;;;14.60;99.90;;;;;;5063832;28;20206;-65
2021/06/09 02:24:06;;;;;;;84.83;52.13;;;14.60;99.90;;;;;;5078905;28;20192;-64
2021/06/09 02:26:37;;;;;;;85.17;50.70;;;14.60;99.90;;;;;;5080514;28;20444;-65
2021/06/09 02:29:07;;;;;;;86.73;52.53;;;14.50;99.90;;;;;;5083863;28;20179;-65
2021/06/09 02:31:36;;;;;;;86.33;51.00;;;14.50;99.90;;;;;;5080499;28;20365;-64
2021/06/09 02:34:04;;;;;;;86.83;52.30;;;14.50;99.90;;;;;;5082931;28;20203;-65
2021/06/09 02:36:32;;;;;;;89.70;52.63;;;14.40;99.90;;;;;;5077270;28;20229;-65
2021/06/09 02:39:00;;;;;;;84.53;50.87;;;14.40;99.90;;;;;;5079640;28;20387;-65
2021/06/09 02:41:30;;;;;;;101.93;56.20;;;14.40;99.90;;;;;;5080028;28;20199;-65
2021/06/09 02:44:00;;;;;;;93.47;56.47;;;14.40;99.90;;;;;;5084463;28;20207;-64
2021/06/09 02:46:32;;;;;;;90.37;55.53;;;14.40;99.90;;;;;;5081930;28;20478;-65
2021/06/09 02:49:02;;;;;;;95.67;57.07;;;14.40;99.90;;;;;;5079860;28;20184;-65
2021/06/09 02:51:35;;;;;;;98.97;57.07;;;14.30;99.90;;;;;;5080302;28;20214;-65
2021/06/09 02:54:07;;;;;;;102.40;59.20;;;14.40;99.90;;;;;;5083469;28;20261;-64
2021/06/09 02:56:46;;;;;;;98.10;58.20;;;14.40;99.90;;;;;;5083312;28;20180;-65
2021/06/09 02:59:28;;;;;;;99.87;59.67;;;14.40;99.90;;;;;;5074015;28;20233;-65
2021/06/09 03:02:04;;;;;;;102.37;59.37;;;14.40;99.90;;;;;;5063766;28;20184;-65
2021/06/09 03:04:38;;;;;;;102.27;58.30;;;14.40;99.90;;;;;;5079717;28;20327;-65
2021/06/09 03:07:14;;;;;;;102.17;58.87;;;14.40;99.90;;;;;;5077260;28;20183;-64
2021/06/09 03:09:52;;;;;;;103.27;58.77;;;14.40;99.90;;;;;;5081988;28;20194;-65
2021/06/09 03:12:32;;;;;;;99.77;59.17;;;14.40;99.90;;;;;;5081433;28;20184;-65
2021/06/09 03:15:10;;;;;;;101.37;58.40;;;14.40;99.90;;;;;;5082480;28;20564;-65
2021/06/09 03:17:51;;;;;;;102.93;58.20;;;14.40;99.90;;;;;;5080440;28;20425;-65
2021/06/09 03:20:27;;;;;;;99.47;58.13;;;14.30;99.90;;;;;;5078199;28;20220;-65
2021/06/09 03:23:00;;;;;;;109.83;62.23;;;14.30;99.90;;;;;;5077407;28;20211;-65
2021/06/09 03:25:35;;;;;;;101.10;58.90;;;14.30;99.90;;;;;;5078728;28;20242;-65
2021/06/09 03:28:16;;;;;;;95.60;57.43;;;14.30;99.90;;;;;;5082512;28;20195;-65
2021/06/09 03:30:51;;;;;;;102.03;59.20;;;14.30;99.90;;;;;;5078025;28;20201;-65
2021/06/09 03:33:21;;;;;;;104.70;61.87;;;14.20;99.90;;;;;;5062580;28;20176;-65
2021/06/09 03:35:54;;;;;;;110.03;60.57;;;14.20;99.90;;;;;;5083609;28;20179;-65
2021/06/09 03:38:28;;;;;;;108.27;61.17;;;14.20;99.90;;;;;;5082459;28;20317;-65
2021/06/09 03:41:00;;;;;;;99.47;59.13;;;14.20;99.90;;;;;;5078949;28;20482;-65
2021/06/09 03:43:32;;;;;;;97.23;57.40;;;14.20;99.90;;;;;;5076828;28;20176;-65
2021/06/09 03:46:01;;;;;;;105.80;59.47;;;14.20;99.90;;;;;;5075586;28;20215;-65
2021/06/09 03:48:32;;;;;;;103.90;60.50;;;14.10;99.90;;;;;;5076872;28;20353;-65
2021/06/09 03:51:01;;;;;;;101.60;57.23;;;14.10;99.90;;;;;;5080761;28;20184;-65
2021/06/09 03:53:30;;;;;;;102.00;57.13;;;14.10;99.90;;;;;;5081968;28;20222;-65
2021/06/09 03:56:02;;;;;;;98.57;57.23;;;14.10;99.90;;;;;;5080999;28;20207;-65
2021/06/09 03:58:32;;;;;;;102.50;56.80;;;14.10;99.90;;;;;;5076835;28;20184;-65
2021/06/09 04:01:00;;;;;;;106.30;61.87;;;14.10;99.90;;;;;;5080621;28;20466;-65
2021/06/09 04:03:30;;;;;;;105.03;59.13;;;14.10;99.90;;;;;;5078910;28;20177;-65
2021/06/09 04:06:00;;;;;;;101.00;58.37;;;14.10;99.90;;;;;;5080835;28;20259;-65
2021/06/09 04:08:30;;;;;;;101.83;58.23;;;14.10;99.90;;;;;;5080673;28;20180;-65
2021/06/09 04:10:59;;;;;;;103.67;60.27;;;14.10;99.90;;;;;;5078622;28;20191;-65
2021/06/09 04:14:19;;;;;;;102.70;57.70;;;14.10;99.90;;;;;;5061632;28;20182;-65
2021/06/09 04:17:07;;;;;;;108.27;61.17;;;14.10;99.90;;;;;;5049251;28;20385;-65
2021/06/09 04:19:40;;;;;;;108.50;61.17;;;14.10;99.90;;;;;;5079391;28;20464;-65
2021/06/09 04:22:08;;;;;;;108.60;61.80;;;14.10;99.90;;;;;;5077407;28;20425;-66
2021/06/09 04:24:38;;;;;;;108.50;62.53;;;14.20;99.90;;;;;;5079229;28;20176;-65
2021/06/09 04:27:09;;;;;;;112.53;66.47;;;14.20;99.90;;;;;;5072556;28;20188;-64
2021/06/09 04:29:39;;;;;;;112.27;64.23;;;14.20;99.90;;;;;;5080198;28;20467;-65
2021/06/09 04:32:07;;;;;;;111.97;64.33;;;14.20;99.90;;;;;;5077598;28;20191;-65
2021/06/09 04:34:46;;;;;;;114.07;67.73;;;14.30;99.90;;;;;;5063030;28;20230;-65
2021/06/09 04:37:14;;;;;;;108.97;62.10;;;14.30;99.90;;;;;;5077834;28;20265;-66
2021/06/09 04:39:42;;;;;;;117.00;66.50;;;14.30;99.90;;;;;;5081259;28;20219;-66
2021/06/09 04:42:11;;;;;;;113.03;64.67;;;14.30;99.90;;;;;;5077810;28;20180;-65
2021/06/09 04:44:42;;;;;;;117.10;67.83;;;14.40;99.90;;;;;;5061244;28;20200;-65
2021/06/09 04:47:11;;;;;;;118.17;67.73;;;14.40;99.90;;;;;;5053276;28;20183;-65
2021/06/09 04:49:41;;;;;;;117.07;67.37;;;14.40;99.90;;;;;;5079976;28;20190;-65
2021/06/09 04:52:10;;;;;;;116.33;68.17;;;14.50;99.90;;;;;;5075880;28;20195;-65
2021/06/09 04:54:38;;;;;;;114.50;65.37;;;14.50;99.90;;;;;;5076198;28;20219;-65
2021/06/09 04:57:08;;;;;;;112.43;65.50;;;14.60;99.90;;;;;;5079275;28;20221;-65
2021/06/09 04:59:36;;;;;;;107.37;65.07;;;14.60;99.90;;;;;;5082438;28;20383;-65
2021/06/09 05:02:06;;;;;;;120.10;66.20;;;14.60;99.90;;;;;;5078253;28;20364;-65
2021/06/09 05:04:35;;;;;;;114.67;67.30;;;14.60;99.90;;;;;;5077235;28;20195;-65
2021/06/09 05:07:03;;;;;;;111.77;64.17;;;14.70;99.90;;;;;;5077505;28;20218;-65
2021/06/09 05:09:31;;;;;;;110.60;62.70;;;14.70;99.90;;;;;;5078295;28;20459;-65
2021/06/09 05:12:03;;;;;;;108.33;63.23;;;14.80;99.90;;;;;;5079146;28;20301;-65
2021/06/09 05:14:35;;;;;;;111.67;63.83;;;14.90;99.90;;;;;;5086929;28;20184;-65
2021/06/09 05:17:06;;;;;;;110.37;65.10;;;15.00;99.90;;;;;;5082355;28;20184;-65
2021/06/09 05:19:38;;;;;;;105.20;62.53;;;15.00;99.90;;;;;;5084833;28;20349;-65
2021/06/09 05:22:11;;;;;;;103.77;62.43;;;15.10;99.90;;;;;;5078703;28;20196;-65
2021/06/09 05:24:39;;;;;;;100.93;59.67;;;15.20;99.90;;;;;;5082358;28;20222;-65
2021/06/09 05:27:10;;;;;;;92.60;58.70;;;15.20;99.90;;;;;;5078723;28;20227;-65
2021/06/09 05:29:39;;;;;;;91.40;54.97;;;15.30;99.90;;;;;;5081799;28;20946;-65
2021/06/09 05:32:10;;;;;;;84.37;51.93;;;15.40;99.90;;;;;;5077960;28;20370;-65
2021/06/09 05:34:39;;;;;;;83.87;52.83;;;15.50;99.90;;;;;;5071964;28;20191;-65
2021/06/09 05:37:10;;;;;;;81.30;49.87;;;15.60;99.90;;;;;;5082338;28;20225;-65
2021/06/09 05:39:39;;;;;;;79.30;49.63;;;15.70;99.90;;;;;;5085174;28;20221;-65
2021/06/09 05:42:08;;;;;;;75.00;46.80;;;15.80;99.90;;;;;;5080419;28;20421;-65
2021/06/09 05:44:36;;;;;;;71.73;45.07;;;15.80;99.90;;;;;;5081905;28;20437;-65
2021/06/09 05:47:04;;;;;;;70.30;44.73;;;15.90;99.90;;;;;;5081721;28;20243;-65
2021/06/09 05:49:34;;;;;;;69.27;43.30;;;16.00;99.90;;;;;;5082983;28;20179;-65
2021/06/09 05:52:03;;;;;;;63.30;41.20;;;16.10;99.90;;;;;;5083033;28;20188;-65
2021/06/09 05:54:35;;;;;;;60.57;39.97;;;16.20;99.90;;;;;;5077353;28;20279;-65
2021/06/09 05:57:05;;;;;;;58.57;38.27;;;16.30;99.90;;;;;;5080772;28;20181;-65
2021/06/09 05:59:33;;;;;;;62.30;38.17;;;16.40;99.90;;;;;;5082682;28;20379;-65
2021/06/09 06:02:02;;;;;;;59.00;37.23;;;16.50;99.90;;;;;;5084788;28;20204;-65
2021/06/09 06:04:30;;;;;;;55.20;35.67;;;16.60;99.90;;;;;;5085562;28;20176;-65
2021/06/09 06:07:00;;;;;;;56.30;35.17;;;16.60;99.90;;;;;;5085556;28;20230;-65
2021/06/09 06:09:28;;;;;;;50.93;33.43;;;16.60;99.90;;;;;;5075106;28;20196;-66
2021/06/09 06:11:56;;;;;;;50.93;34.20;;;16.70;99.90;;;;;;5082429;28;20193;-65
2021/06/09 06:14:25;;;;;;;45.13;30.37;;;16.80;99.90;;;;;;5081356;28;20428;-65
2021/06/09 06:16:55;;;;;;;49.63;29.60;;;16.90;99.90;;;;;;5085115;28;20188;-65
2021/06/09 06:19:32;;;;;;;42.53;28.40;;;17.00;99.90;;;;;;5081523;28;20193;-66
2021/06/09 06:22:08;;;;;;;39.40;26.57;;;17.20;99.90;;;;;;5084247;28;20215;-66
2021/06/09 06:24:40;;;;;;;40.30;25.67;;;17.30;99.90;;;;;;5081223;28;20188;-65
2021/06/09 06:27:09;;;;;;;39.20;25.63;;;17.30;99.90;;;;;;5082215;28;20211;-67
2021/06/09 06:29:38;;;;;;;36.83;25.67;;;17.40;99.90;;;;;;5083202;28;20502;-65
2021/06/09 06:32:08;;;;;;;33.53;22.77;;;17.40;99.90;;;;;;5082160;28;20192;-65
2021/06/09 06:34:41;;;;;;;32.70;22.83;;;17.50;99.90;;;;;;5062905;28;20183;-65
2021/06/09 06:37:11;;;;;;;30.47;21.10;;;17.50;99.90;;;;;;5081835;28;20189;-65
2021/06/09 06:39:41;;;;;;;32.43;20.57;;;17.50;99.90;;;;;;5075231;28;20212;-65
2021/06/09 06:42:09;;;;;;;30.57;19.80;;;17.70;99.90;;;;;;5088125;28;20184;-66
2021/06/09 06:44:40;;;;;;;27.87;19.90;;;17.80;99.90;;;;;;5070665;28;20189;-65
2021/06/09 06:47:09;;;;;;;25.07;18.90;;;17.80;99.90;;;;;;5082223;28;20312;-66
2021/06/09 06:49:38;;;;;;;29.17;19.80;;;17.90;99.90;;;;;;5081827;28;20238;-65
2021/06/09 06:52:10;;;;;;;28.27;19.10;;;18.00;99.90;;;;;;5079789;28;20466;-65
2021/06/09 06:54:38;;;;;;;24.23;17.97;;;18.00;99.90;;;;;;5081244;28;20223;-66
2021/06/09 06:57:07;;;;;;;27.57;18.93;;;18.20;99.90;;;;;;5083357;28;20184;-66
2021/06/09 06:59:36;;;;;;;27.57;18.97;;;18.20;99.90;;;;;;5078285;28;20207;-65
2021/06/09 07:02:05;;;;;;;26.00;18.23;;;18.40;99.90;;;;;;5081805;28;20328;-66
2021/06/09 07:04:33;;;;;;;21.90;16.97;;;18.40;99.90;;;;;;5079923;28;20172;-65
2021/06/09 07:07:02;;;;;;;23.83;17.23;;;18.50;99.90;;;;;;5082475;28;20195;-65
2021/06/09 07:09:32;;;;;;;21.80;16.60;;;18.60;99.90;;;;;;5080609;28;20202;-65
2021/06/09 07:12:00;;;;;;;21.93;16.53;;;18.80;99.90;;;;;;5081861;28;20520;-65
2021/06/09 07:14:29;;;;;;;21.67;17.03;;;18.90;99.90;;;;;;5083291;28;20191;-65
2021/06/09 07:16:58;;;;;;;24.30;15.20;;;19.00;99.90;;;;;;5083029;28;20222;-65
2021/06/09 07:19:26;;;;;;;19.53;15.50;;;19.10;99.90;;;;;;5081442;28;20259;-65
2021/06/09 07:22:12;;;;;;;20.93;15.30;;;19.20;99.90;;;;;;5079936;28;20176;-66
2021/06/09 07:24:42;;;;;;;16.97;13.73;;;19.40;99.90;;;;;;5082012;28;20215;-65
2021/06/09 07:27:10;;;;;;;22.70;15.17;;;19.50;99.90;;;;;;5062335;28;20191;-66
2021/06/09 07:29:39;;;;;;;23.60;13.67;;;19.60;99.90;;;;;;5082508;28;20184;-65
2021/06/09 07:32:09;;;;;;;17.67;13.50;;;19.70;99.90;;;;;;5081744;28;20180;-65
2021/06/09 07:34:37;;;;;;;17.37;12.93;;;19.80;99.90;;;;;;5075531;28;20432;-65
2021/06/09 07:37:11;;;;;;;13.83;12.10;;;19.90;99.90;;;;;;5083632;28;20180;-66
2021/06/09 07:39:45;;;;;;;15.70;12.30;;;20.00;99.90;;;;;;5069475;28;20196;-67
2021/06/09 07:42:17;;;;;;;15.07;11.27;;;20.00;99.90;;;;;;5082501;28;20230;-66
2021/06/09 07:44:57;;;;;;;12.17;10.87;;;20.10;99.90;;;;;;5081392;28;20325;-66
2021/06/09 07:47:27;;;;;;;12.83;11.13;;;20.20;99.90;;;;;;5080703;28;20183;-65
2021/06/09 07:49:55;;;;;;;15.37;10.90;;;20.20;99.90;;;;;;5081893;28;20242;-65
2021/06/09 07:52:26;;;;;;;12.47;9.97;;;20.30;99.90;;;;;;5081622;28;20442;-66
2021/06/09 07:54:58;;;;;;;11.70;10.17;;;20.50;99.90;;;;;;5076067;28;20223;-66
2021/06/09 07:57:29;;;;;;;14.90;10.03;;;20.50;99.90;;;;;;5077492;28;20180;-66
2021/06/09 07:59:58;;;;;;;11.13;9.00;;;20.60;99.90;;;;;;5076633;28;20192;-66
2021/06/09 08:02:26;;;;;;;12.53;9.83;;;20.70;99.90;;;;;;5082321;28;20184;-66
2021/06/09 08:04:54;;;;;;;12.53;9.30;;;20.80;99.90;;;;;;5082100;28;20234;-66
2021/06/09 08:07:22;;;;;;;10.37;9.27;;;21.10;99.90;;;;;;5083300;28;20188;-65
2021/06/09 08:09:49;;;;;;;10.30;9.23;;;21.20;99.90;;;;;;5074589;28;20425;-66
2021/06/09 08:12:19;;;;;;;12.23;10.60;;;21.50;99.90;;;;;;5079158;28;20242;-66
2021/06/09 08:14:47;;;;;;;10.17;8.87;;;21.60;99.90;;;;;;5081405;28;20195;-66
2021/06/09 08:17:15;;;;;;;13.20;10.27;;;21.70;99.90;;;;;;5076344;28;20254;-66
2021/06/09 08:19:43;;;;;;;11.10;9.53;;;21.90;99.90;;;;;;5074029;28;20241;-66
2021/06/09 08:22:11;;;;;;;10.43;9.33;;;22.00;99.90;;;;;;5081411;28;20213;-65
2021/06/09 08:24:39;;;;;;;10.23;9.20;;;22.00;99.90;;;;;;5074681;28;20226;-66
2021/06/09 08:27:07;;;;;;;13.47;8.67;;;22.10;99.90;;;;;;5079274;28;20368;-66
2021/06/09 08:29:38;;;;;;;10.97;8.17;;;22.20;99.90;;;;;;5064298;28;20176;-66
2021/06/09 08:32:07;;;;;;;11.73;9.60;;;22.30;99.90;;;;;;5080924;28;20230;-65
2021/06/09 08:34:35;;;;;;;11.60;9.43;;;22.60;99.90;;;;;;5077299;28;20196;-65
2021/06/09 08:37:03;;;;;;;11.07;8.67;;;22.80;99.90;;;;;;5083191;28;20174;-66
2021/06/09 08:39:31;;;;;;;10.60;9.50;;;22.80;99.90;;;;;;5069631;28;20196;-66
2021/06/09 08:42:03;;;;;;;10.70;8.90;;;22.90;99.90;;;;;;5079286;28;20210;-66
2021/06/09 08:44:38;;;;;;;9.33;8.43;;;22.80;99.90;;;;;;5081188;28;20232;-66
2021/06/09 08:47:09;;;;;;;9.67;8.57;;;23.00;99.90;;;;;;5066766;28;20362;-66
2021/06/09 08:49:37;;;;;;;10.07;8.87;;;23.30;99.90;;;;;;5088783;28;20271;-66
2021/06/09 08:52:09;;;;;;;11.90;9.13;;;23.20;99.90;;;;;;5088908;28;20182;-66
2021/06/09 08:54:41;;;;;;;9.23;8.23;;;23.20;99.90;;;;;;5082529;28;20233;-66
2021/06/09 08:57:09;;;;;;;9.00;8.00;;;23.30;99.90;;;;;;5087627;28;20179;-66
2021/06/09 08:59:37;;;;;;;10.17;7.90;;;23.50;99.90;;;;;;5088596;28;20456;-66
2021/06/09 09:02:09;;;;;;;10.87;8.30;;;23.70;99.90;;;;;;5087021;28;20279;-66
2021/06/09 09:04:37;;;;;;;7.57;6.70;;;23.50;99.90;;;;;;5080987;28;20429;-66
2021/06/09 09:07:07;;;;;;;6.73;6.13;;;23.70;99.90;;;;;;5071274;28;20187;-67
2021/06/09 09:09:36;;;;;;;6.10;5.60;;;23.60;99.90;;;;;;5087718;28;20186;-67
2021/06/09 09:12:05;;;;;;;7.20;6.20;;;23.50;99.90;;;;;;5076908;28;20387;-66
2021/06/09 09:14:34;;;;;;;7.17;6.47;;;23.40;99.90;;;;;;5086778;28;20198;-68
2021/06/09 09:17:08;;;;;;;8.50;7.70;;;23.50;99.90;;;;;;5088084;28;20373;-67
2021/06/09 09:19:40;;;;;;;7.67;6.80;;;23.50;99.90;;;;;;5085689;28;20444;-66
2021/06/09 09:22:09;;;;;;;6.40;5.80;;;23.90;99.90;;;;;;5079671;28;20215;-66
2021/06/09 09:24:40;;;;;;;8.70;7.17;;;23.90;99.90;;;;;;5087888;28;20184;-67
2021/06/09 09:27:08;;;;;;;8.30;7.23;;;23.60;99.90;;;;;;5088212;27;20195;-67
2021/06/09 09:29:36;;;;;;;8.87;7.97;;;23.50;99.90;;;;;;5070657;28;20206;-67
2021/06/09 09:32:08;;;;;;;8.20;7.40;;;23.60;99.90;;;;;;5081946;28;20200;-66
2021/06/09 09:34:38;;;;;;;9.60;8.50;;;23.70;99.90;;;;;;5061957;28;20188;-67
2021/06/09 09:37:17;;;;;;;9.87;8.70;;;23.90;99.90;;;;;;5089685;28;20184;-67
2021/06/09 09:39:48;;;;;;;9.13;8.30;;;24.10;99.90;;;;;;5085897;28;20184;-66
2021/06/09 09:42:31;;;;;;;14.37;8.73;;;24.40;99.90;;;;;;5084707;28;20379;-67
2021/06/09 09:45:20;;;;;;;11.93;8.37;;;24.80;99.90;;;;;;5085313;28;20227;-66
2021/06/09 09:48:12;;;;;;;9.95;8.00;;;25.10;99.90;;;;;;5060829;28;20195;-67
2021/06/09 09:50:43;;;;;;;9.13;8.27;;;25.30;99.90;;;;;;5081017;28;20179;-67
2021/06/09 09:53:19;;;;;;;9.15;8.15;;;25.20;99.90;;;;;;5088444;28;20192;-67
2021/06/09 09:55:55;;;;;;;11.70;8.63;;;25.00;99.90;;;;;;5085489;28;20403;-66
2021/06/09 09:58:26;;;;;;;8.88;6.95;;;25.20;99.90;;;;;;5066755;28;20338;-67
2021/06/09 10:01:15;;;;;;;9.80;8.18;;;25.20;99.90;;;;;;5085450;28;20211;-66
2021/06/09 10:03:47;;;;;;;8.95;8.05;;;25.10;99.90;;;;;;5085311;28;20178;-67
2021/06/09 10:06:32;;;;;;;7.65;6.85;;;25.20;99.90;;;;;;5072959;28;20189;-66
2021/06/09 10:09:09;;;;;;;9.27;7.90;;;25.40;99.90;;;;;;5076513;28;20431;-66
2021/06/09 10:11:43;;;;;;;5.70;5.20;;;25.80;99.90;;;;;;5056180;28;20191;-67
2021/06/09 10:14:22;;;;;;;7.43;6.75;;;26.00;99.90;;;;;;5067129;28;20182;-66
2021/06/09 10:16:58;;;;;;;7.63;6.97;;;26.40;99.90;;;;;;5074971;28;20259;-67
2021/06/09 10:19:31;;;;;;;7.57;6.88;;;26.90;99.90;;;;;;5084813;28;20206;-67
2021/06/09 10:22:03;;;;;;;7.43;6.63;;;26.80;99.90;;;;;;5077377;28;20480;-67
2021/06/09 10:24:41;;;;;;;8.30;7.43;;;26.80;99.90;;;;;;5085388;28;20211;-67
2021/06/09 10:27:09;;;;;;;7.82;7.03;;;26.60;99.90;;;;;;5084588;28;20184;-67
2021/06/09 10:29:38;;;;;;;8.23;7.43;;;27.00;99.90;;;;;;5082859;28;20213;-66
2021/06/09 10:32:08;;;;;;;7.15;6.53;;;27.10;99.90;;;;;;5075834;28;20191;-66
2021/06/09 10:34:42;;;;;;;8.20;7.50;;;27.30;99.90;;;;;;5083356;28;20203;-67
2021/06/09 10:37:11;;;;;;;9.20;7.47;;;27.40;99.90;;;;;;5083284;28;20202;-66
2021/06/09 10:39:41;;;;;;;10.40;7.70;;;27.50;99.90;;;;;;5059104;28;20194;-66
2021/06/09 10:42:11;;;;;;;7.90;7.20;;;27.90;99.90;;;;;;5081140;28;20215;-67
2021/06/09 10:44:41;;;;;;;8.65;7.80;;;28.30;99.90;;;;;;5052969;28;20204;-66
2021/06/09 10:47:17;;;;;;;8.68;7.78;;;28.30;99.90;;;;;;5080776;28;20195;-66
2021/06/09 10:49:47;;;;;;;8.82;7.95;;;28.50;99.90;;;;;;5083968;28;20250;-66
2021/06/09 10:52:16;;;;;;;9.32;8.05;;;28.40;99.90;;;;;;5081966;28;20215;-67
2021/06/09 10:54:45;;;;;;;14.27;10.63;;;28.40;99.90;;;;;;5080223;28;20216;-66
2021/06/09 10:57:14;;;;;;;11.52;9.68;;;27.80;99.90;;;;;;5065806;28;20190;-66
2021/06/09 10:59:43;;;;;;;13.02;10.85;;;27.40;99.90;;;;;;5085469;28;20375;-66
2021/06/09 11:02:13;;;;;;;13.55;11.27;;;27.40;99.90;;;;;;5081266;28;20215;-66
2021/06/09 11:04:44;;;;;;;11.35;10.07;;;27.60;99.90;;;;;;5082577;28;20186;-66
2021/06/09 11:07:31;;;;;;;13.98;11.73;;;27.50;99.90;;;;;;5074228;28;20183;-67
2021/06/09 11:10:06;;;;;;;12.90;11.45;;;27.50;99.90;;;;;;5085290;28;20476;-67
2021/06/09 11:12:39;;;;;;;12.85;11.55;;;27.60;99.90;;;;;;5048751;28;20374;-66
2021/06/09 11:15:10;;;;;;;10.45;8.95;;;27.70;99.90;;;;;;5083305;28;20327;-66
2021/06/09 11:17:41;;;;;;;16.60;11.65;;;27.70;99.90;;;;;;5082743;28;20195;-66
2021/06/09 11:20:21;;;;;;;18.20;10.68;;;27.90;99.90;;;;;;5077422;28;20258;-65
2021/06/09 11:23:02;;;;;;;11.95;9.27;;;28.00;99.90;;;;;;5077483;28;20228;-66
2021/06/09 11:25:38;;;;;;;12.50;10.90;;;27.90;99.90;;;;;;5063870;28;20189;-66
2021/06/09 11:28:07;;;;;;;11.02;10.02;;;27.90;99.90;;;;;;5076419;28;20183;-67
2021/06/09 11:30:50;;;;;;;11.65;10.52;;;28.10;99.90;;;;;;5082035;28;20189;-66
2021/06/09 11:33:34;;;;;;;11.45;9.68;;;28.00;99.90;;;;;;5072480;28;20460;-67
2021/06/09 11:36:05;;;;;;;12.27;10.80;;;27.90;99.90;;;;;;5080963;28;20188;-66
2021/06/09 11:38:38;;;;;;;11.23;10.17;;;27.60;99.90;;;;;;5073851;28;20180;-66
2021/06/09 11:41:10;;;;;;;13.43;10.43;;;26.80;99.90;;;;;;5081022;28;20257;-66
2021/06/09 11:43:42;;;;;;;11.90;10.83;;;26.30;99.90;;;;;;5081187;28;20202;-66
2021/06/09 11:46:19;;;;;;;11.47;9.20;;;26.00;99.90;;;;;;5078560;28;20181;-66
2021/06/09 11:48:53;;;;;;;12.53;10.03;;;26.40;99.90;;;;;;5080111;28;20322;-65
2021/06/09 11:51:26;;;;;;;12.37;11.13;;;26.80;99.90;;;;;;5080453;28;20204;-67
2021/06/09 11:53:58;;;;;;;11.47;10.37;;;27.00;99.90;;;;;;5081821;28;20405;-66
2021/06/09 11:56:41;;;;;;;15.03;10.90;;;27.10;99.90;;;;;;5076780;28;20429;-66
2021/06/09 11:59:23;;;;;;;14.27;10.63;;;27.20;99.90;;;;;;5075461;28;20363;-66
2021/06/09 12:01:52;;;;;;;15.87;11.30;;;27.30;99.90;;;;;;5071748;28;20212;-66
2021/06/09 12:04:22;;;;;;;15.87;10.37;;;27.40;99.90;;;;;;5081178;28;20182;-66
2021/06/09 12:06:56;;;;;;;13.60;10.30;;;27.30;99.90;;;;;;5078883;28;20204;-65
2021/06/09 12:09:30;;;;;;;8.20;7.40;;;27.10;99.90;;;;;;5079939;28;20191;-65
2021/06/09 12:12:00;;;;;;;7.37;6.70;;;27.10;99.90;;;;;;5069331;28;20206;-65
2021/06/09 12:14:31;;;;;;;8.80;7.70;;;26.90;99.90;;;;;;5080534;28;20184;-65
2021/06/09 12:17:19;;;;;;;10.67;9.57;;;26.80;99.90;;;;;;5080055;28;20184;-65
2021/06/09 12:19:49;;;;;;;9.60;8.17;;;26.60;99.90;;;;;;5022796;28;20202;-66
2021/06/09 12:22:19;;;;;;;10.63;9.60;;;26.70;99.90;;;;;;5021583;28;20289;-65
2021/06/09 12:25:04;;;;;;;8.67;7.60;;;26.70;99.90;;;;;;5027078;28;20204;-66
2021/06/09 12:27:33;;;;;;;9.10;8.27;;;26.60;99.90;;;;;;5021119;28;20217;-67
2021/06/09 12:30:02;;;;;;;7.57;6.70;;;26.70;99.90;;;;;;5025683;28;20194;-65
2021/06/09 12:32:32;;;;;;;7.03;6.33;;;26.70;99.90;;;;;;5023980;28;20208;-65
2021/06/09 12:35:04;;;;;;;6.63;5.93;;;26.70;99.90;;;;;;5021948;28;20286;-64
2021/06/09 12:37:34;;;;;;;5.57;5.07;;;26.60;99.90;;;;;;5045151;28;20200;-65
2021/06/09 12:40:07;;;;;;;4.97;4.13;;;26.70;99.90;;;;;;5076063;28;20209;-65
2021/06/09 12:42:36;;;;;;;4.80;4.30;;;26.70;99.90;;;;;;5082024;28;20247;-66
2021/06/09 12:45:07;;;;;;;4.90;4.43;;;26.70;98.90;;;;;;5082437;28;20190;-66
2021/06/09 12:47:36;;;;;;;4.10;3.90;;;26.50;98.10;;;;;;5073791;28;20507;-66
2021/06/09 12:50:15;;;;;;;6.00;5.00;;;26.60;99.90;;;;;;5078490;28;20447;-66
2021/06/09 12:52:45;;;;;;;7.00;4.07;;;26.60;99.90;;;;;;5078695;28;20190;-65